sensor_id;sensor_type;location;lat;lon;timestamp;P1;durP1;ratioP1;P2;durP2;ratioP2
27758;SDS011;15148;48.972;12.794;2022-09-12T00:02:25;5.68;;;5.18;;
27758;SDS011;15148;48.972;12.794;2022-09-12T00:07:27;6.80;;;6.10;;
27758;SDS011;15148;48.972;12.794;2022-09-12T00:12:29;12.98;;;9.75;;
27758;SDS011;15148;48.972;12.794;2022-09-12T00:17:33;7.82;;;7.00;;
27758;SDS011;15148;48.972;12.794;2022-09-12T00:22:35;7.55;;;5.22;;
27758;SDS011;15148;48.972;12.794;2022-09-12T00:27:37;4.85;;;4.45;;
27758;SDS011;15148;48.972;12.794;2022-09-12T00:32:39;4.97;;;4.57;;
27758;SDS011;15148;48.972;12.794;2022-09-12T00:37:41;5.53;;;5.03;;
27758;SDS011;15148;48.972;12.794;2022-09-12T00:42:43;6.20;;;4.60;;
27758;SDS011;15148;48.972;12.794;2022-09-12T00:47:44;5.55;;;4.40;;
27758;SDS011;15148;48.972;12.794;2022-09-12T00:52:50;4.50;;;4.20;;
27758;SDS011;15148;48.972;12.794;2022-09-12T00:58:41;4.82;;;4.43;;
27758;SDS011;15148;48.972;12.794;2022-09-12T01:03:23;4.03;;;3.72;;
27758;SDS011;15148;48.972;12.794;2022-09-12T01:08:26;4.47;;;4.05;;
27758;SDS011;15148;48.972;12.794;2022-09-12T01:13:28;4.20;;;3.83;;
27758;SDS011;15148;48.972;12.794;2022-09-12T01:18:39;5.18;;;4.10;;
27758;SDS011;15148;48.972;12.794;2022-09-12T01:23:53;6.15;;;4.55;;
27758;SDS011;15148;48.972;12.794;2022-09-12T01:34:51;5.93;;;4.45;;
27758;SDS011;15148;48.972;12.794;2022-09-12T01:45:28;6.68;;;3.85;;
27758;SDS011;15148;48.972;12.794;2022-09-12T01:50:41;6.28;;;3.92;;
27758;SDS011;15148;48.972;12.794;2022-09-12T01:55:52;4.20;;;3.75;;
27758;SDS011;15148;48.972;12.794;2022-09-12T02:01:09;5.20;;;4.40;;
27758;SDS011;15148;48.972;12.794;2022-09-12T02:06:17;5.00;;;4.30;;
27758;SDS011;15148;48.972;12.794;2022-09-12T02:11:24;4.18;;;3.78;;
27758;SDS011;15148;48.972;12.794;2022-09-12T02:16:28;8.95;;;4.60;;
27758;SDS011;15148;48.972;12.794;2022-09-12T02:21:34;6.47;;;3.75;;
27758;SDS011;15148;48.972;12.794;2022-09-12T02:26:54;4.53;;;4.00;;
27758;SDS011;15148;48.972;12.794;2022-09-12T02:32:03;4.38;;;3.97;;
27758;SDS011;15148;48.972;12.794;2022-09-12T02:37:17;4.53;;;4.07;;
27758;SDS011;15148;48.972;12.794;2022-09-12T02:42:30;5.63;;;3.90;;
27758;SDS011;15148;48.972;12.794;2022-09-12T02:47:37;6.03;;;4.13;;
27758;SDS011;15148;48.972;12.794;2022-09-12T02:52:53;5.90;;;4.05;;
27758;SDS011;15148;48.972;12.794;2022-09-12T02:58:00;4.22;;;3.92;;
27758;SDS011;15148;48.972;12.794;2022-09-12T03:13:32;5.55;;;4.82;;
27758;SDS011;15148;48.972;12.794;2022-09-12T03:24:10;4.38;;;4.00;;
27758;SDS011;15148;48.972;12.794;2022-09-12T03:29:18;6.18;;;4.40;;
27758;SDS011;15148;48.972;12.794;2022-09-12T03:34:21;6.10;;;4.15;;
27758;SDS011;15148;48.972;12.794;2022-09-12T03:39:24;5.15;;;4.15;;
27758;SDS011;15148;48.972;12.794;2022-09-12T03:44:27;5.43;;;4.55;;
27758;SDS011;15148;48.972;12.794;2022-09-12T03:49:28;4.57;;;4.18;;
27758;SDS011;15148;48.972;12.794;2022-09-12T03:54:30;7.95;;;4.10;;
27758;SDS011;15148;48.972;12.794;2022-09-12T03:59:32;4.85;;;4.45;;
27758;SDS011;15148;48.972;12.794;2022-09-12T04:04:34;4.97;;;4.57;;
27758;SDS011;15148;48.972;12.794;2022-09-12T04:09:36;4.85;;;4.22;;
27758;SDS011;15148;48.972;12.794;2022-09-12T04:14:38;4.55;;;4.15;;
27758;SDS011;15148;48.972;12.794;2022-09-12T04:19:40;9.32;;;4.88;;
27758;SDS011;15148;48.972;12.794;2022-09-12T04:24:42;6.80;;;4.55;;
27758;SDS011;15148;48.972;12.794;2022-09-12T04:29:43;4.85;;;4.45;;
27758;SDS011;15148;48.972;12.794;2022-09-12T04:34:45;4.57;;;3.58;;
27758;SDS011;15148;48.972;12.794;2022-09-12T04:39:47;10.65;;;6.75;;
27758;SDS011;15148;48.972;12.794;2022-09-12T04:44:49;5.85;;;4.88;;
27758;SDS011;15148;48.972;12.794;2022-09-12T04:49:52;5.60;;;5.10;;
27758;SDS011;15148;48.972;12.794;2022-09-12T04:54:54;6.75;;;5.03;;
27758;SDS011;15148;48.972;12.794;2022-09-12T04:59:55;5.43;;;4.90;;
27758;SDS011;15148;48.972;12.794;2022-09-12T05:04:57;5.53;;;5.03;;
27758;SDS011;15148;48.972;12.794;2022-09-12T05:09:59;20.52;;;15.73;;
27758;SDS011;15148;48.972;12.794;2022-09-12T05:15:01;8.10;;;6.35;;
27758;SDS011;15148;48.972;12.794;2022-09-12T05:20:03;6.60;;;6.00;;
27758;SDS011;15148;48.972;12.794;2022-09-12T05:25:05;8.07;;;5.90;;
27758;SDS011;15148;48.972;12.794;2022-09-12T05:30:08;8.13;;;6.47;;
27758;SDS011;15148;48.972;12.794;2022-09-12T05:35:10;6.10;;;5.60;;
27758;SDS011;15148;48.972;12.794;2022-09-12T05:40:12;7.57;;;6.57;;
27758;SDS011;15148;48.972;12.794;2022-09-12T05:45:17;8.40;;;7.60;;
27758;SDS011;15148;48.972;12.794;2022-09-12T05:50:19;7.20;;;6.50;;
27758;SDS011;15148;48.972;12.794;2022-09-12T05:55:21;6.53;;;5.97;;
27758;SDS011;15148;48.972;12.794;2022-09-12T06:00:24;7.32;;;6.47;;
27758;SDS011;15148;48.972;12.794;2022-09-12T06:05:33;9.40;;;6.50;;
27758;SDS011;15148;48.972;12.794;2022-09-12T06:10:35;6.85;;;6.20;;
27758;SDS011;15148;48.972;12.794;2022-09-12T06:15:37;7.60;;;6.90;;
27758;SDS011;15148;48.972;12.794;2022-09-12T06:20:39;8.10;;;7.40;;
27758;SDS011;15148;48.972;12.794;2022-09-12T06:25:44;8.70;;;6.07;;
27758;SDS011;15148;48.972;12.794;2022-09-12T06:30:48;6.43;;;5.83;;
27758;SDS011;15148;48.972;12.794;2022-09-12T06:35:50;6.72;;;5.57;;
27758;SDS011;15148;48.972;12.794;2022-09-12T06:40:51;5.45;;;5.00;;
27758;SDS011;15148;48.972;12.794;2022-09-12T06:45:53;6.18;;;5.57;;
27758;SDS011;15148;48.972;12.794;2022-09-12T06:56:00;5.93;;;5.43;;
27758;SDS011;15148;48.972;12.794;2022-09-12T07:06:09;6.75;;;6.15;;
27758;SDS011;15148;48.972;12.794;2022-09-12T07:11:20;8.10;;;6.95;;
27758;SDS011;15148;48.972;12.794;2022-09-12T07:16:23;14.15;;;11.10;;
27758;SDS011;15148;48.972;12.794;2022-09-12T07:21:26;15.27;;;11.80;;
27758;SDS011;15148;48.972;12.794;2022-09-12T07:26:29;11.43;;;10.23;;
27758;SDS011;15148;48.972;12.794;2022-09-12T07:31:31;14.68;;;10.70;;
27758;SDS011;15148;48.972;12.794;2022-09-12T07:36:33;13.30;;;11.90;;
27758;SDS011;15148;48.972;12.794;2022-09-12T07:41:35;15.18;;;12.80;;
27758;SDS011;15148;48.972;12.794;2022-09-12T07:46:36;13.98;;;12.18;;
27758;SDS011;15148;48.972;12.794;2022-09-12T07:51:40;13.13;;;11.73;;
27758;SDS011;15148;48.972;12.794;2022-09-12T07:56:42;13.32;;;11.93;;
27758;SDS011;15148;48.972;12.794;2022-09-12T08:01:44;10.95;;;9.85;;
27758;SDS011;15148;48.972;12.794;2022-09-12T08:06:46;12.38;;;11.07;;
27758;SDS011;15148;48.972;12.794;2022-09-12T08:11:47;12.35;;;11.05;;
27758;SDS011;15148;48.972;12.794;2022-09-12T08:16:49;13.38;;;11.55;;
27758;SDS011;15148;48.972;12.794;2022-09-12T08:21:51;12.07;;;10.88;;
27758;SDS011;15148;48.972;12.794;2022-09-12T08:26:53;12.00;;;10.90;;
27758;SDS011;15148;48.972;12.794;2022-09-12T08:31:54;11.50;;;10.32;;
27758;SDS011;15148;48.972;12.794;2022-09-12T08:36:57;11.05;;;9.90;;
27758;SDS011;15148;48.972;12.794;2022-09-12T08:42:00;12.45;;;11.25;;
27758;SDS011;15148;48.972;12.794;2022-09-12T08:57:52;12.05;;;10.95;;
27758;SDS011;15148;48.972;12.794;2022-09-12T09:18:56;15.55;;;13.98;;
27758;SDS011;15148;48.972;12.794;2022-09-12T09:24:05;15.68;;;14.07;;
27758;SDS011;15148;48.972;12.794;2022-09-12T09:34:18;14.02;;;12.52;;
27758;SDS011;15148;48.972;12.794;2022-09-12T09:44:45;11.73;;;10.57;;
27758;SDS011;15148;48.972;12.794;2022-09-12T09:49:49;14.90;;;13.40;;
27758;SDS011;15148;48.972;12.794;2022-09-12T09:54:52;13.30;;;12.05;;
27758;SDS011;15148;48.972;12.794;2022-09-12T09:59:58;15.05;;;13.60;;
27758;SDS011;15148;48.972;12.794;2022-09-12T10:05:21;11.77;;;10.77;;
27758;SDS011;15148;48.972;12.794;2022-09-12T10:10:24;15.35;;;13.85;;
27758;SDS011;15148;48.972;12.794;2022-09-12T10:15:25;11.73;;;10.68;;
27758;SDS011;15148;48.972;12.794;2022-09-12T10:20:29;14.82;;;13.32;;
27758;SDS011;15148;48.972;12.794;2022-09-12T10:25:34;12.40;;;11.30;;
27758;SDS011;15148;48.972;12.794;2022-09-12T10:30:36;16.73;;;15.02;;
27758;SDS011;15148;48.972;12.794;2022-09-12T10:35:42;14.95;;;13.55;;
27758;SDS011;15148;48.972;12.794;2022-09-12T10:40:54;14.93;;;13.43;;
27758;SDS011;15148;48.972;12.794;2022-09-12T10:56:27;13.43;;;12.13;;
27758;SDS011;15148;48.972;12.794;2022-09-12T11:06:37;10.90;;;9.98;;
27758;SDS011;15148;48.972;12.794;2022-09-12T11:11:52;10.05;;;9.20;;
27758;SDS011;15148;48.972;12.794;2022-09-12T11:17:07;11.55;;;10.55;;
27758;SDS011;15148;48.972;12.794;2022-09-12T11:23:08;11.15;;;10.15;;
27758;SDS011;15148;48.972;12.794;2022-09-12T11:33:40;12.70;;;11.50;;
27758;SDS011;15148;48.972;12.794;2022-09-12T11:43:48;8.65;;;7.93;;
27758;SDS011;15148;48.972;12.794;2022-09-12T11:48:59;10.93;;;9.93;;
27758;SDS011;15148;48.972;12.794;2022-09-12T11:54:04;9.93;;;8.98;;
27758;SDS011;15148;48.972;12.794;2022-09-12T12:10:38;8.63;;;7.82;;
27758;SDS011;15148;48.972;12.794;2022-09-12T12:15:46;9.75;;;8.85;;
27758;SDS011;15148;48.972;12.794;2022-09-12T12:20:50;10.52;;;9.52;;
27758;SDS011;15148;48.972;12.794;2022-09-12T12:25:54;9.30;;;8.40;;
27758;SDS011;15148;48.972;12.794;2022-09-12T12:30:58;7.35;;;6.72;;
27758;SDS011;15148;48.972;12.794;2022-09-12T12:36:03;9.35;;;8.45;;
27758;SDS011;15148;48.972;12.794;2022-09-12T12:46:19;9.65;;;8.65;;
27758;SDS011;15148;48.972;12.794;2022-09-12T12:56:40;8.93;;;8.02;;
27758;SDS011;15148;48.972;12.794;2022-09-12T13:01:46;9.98;;;8.98;;
27758;SDS011;15148;48.972;12.794;2022-09-12T13:06:57;7.80;;;6.82;;
27758;SDS011;15148;48.972;12.794;2022-09-12T13:12:10;6.78;;;6.18;;
27758;SDS011;15148;48.972;12.794;2022-09-12T13:17:22;7.50;;;6.88;;
27758;SDS011;15148;48.972;12.794;2022-09-12T13:22:36;7.00;;;6.40;;
27758;SDS011;15148;48.972;12.794;2022-09-12T13:27:46;8.60;;;7.90;;
27758;SDS011;15148;48.972;12.794;2022-09-12T13:33:05;6.95;;;6.30;;
27758;SDS011;15148;48.972;12.794;2022-09-12T13:44:02;6.95;;;6.25;;
27758;SDS011;15148;48.972;12.794;2022-09-12T13:54:52;6.80;;;6.18;;
27758;SDS011;15148;48.972;12.794;2022-09-12T13:59:56;6.05;;;5.55;;
27758;SDS011;15148;48.972;12.794;2022-09-12T14:04:59;5.72;;;5.32;;
27758;SDS011;15148;48.972;12.794;2022-09-12T14:10:12;6.78;;;6.18;;
27758;SDS011;15148;48.972;12.794;2022-09-12T14:15:22;6.50;;;5.90;;
27758;SDS011;15148;48.972;12.794;2022-09-12T14:20:28;6.75;;;6.05;;
27758;SDS011;15148;48.972;12.794;2022-09-12T14:25:35;6.57;;;5.95;;
27758;SDS011;15148;48.972;12.794;2022-09-12T14:30:41;6.07;;;5.57;;
27758;SDS011;15148;48.972;12.794;2022-09-12T14:41:09;6.40;;;5.78;;
27758;SDS011;15148;48.972;12.794;2022-09-12T14:46:23;6.53;;;5.82;;
27758;SDS011;15148;48.972;12.794;2022-09-12T14:51:38;5.55;;;5.07;;
27758;SDS011;15148;48.972;12.794;2022-09-12T14:56:57;5.75;;;5.18;;
27758;SDS011;15148;48.972;12.794;2022-09-12T15:02:20;5.88;;;5.32;;
27758;SDS011;15148;48.972;12.794;2022-09-12T15:07:28;5.68;;;4.90;;
27758;SDS011;15148;48.972;12.794;2022-09-12T15:12:36;5.13;;;4.72;;
27758;SDS011;15148;48.972;12.794;2022-09-12T15:17:37;5.55;;;5.05;;
27758;SDS011;15148;48.972;12.794;2022-09-12T15:22:39;5.07;;;4.68;;
27758;SDS011;15148;48.972;12.794;2022-09-12T15:27:43;5.50;;;5.00;;
27758;SDS011;15148;48.972;12.794;2022-09-12T15:37:53;5.47;;;5.05;;
27758;SDS011;15148;48.972;12.794;2022-09-12T15:42:55;5.00;;;4.60;;
27758;SDS011;15148;48.972;12.794;2022-09-12T15:47:56;6.03;;;5.43;;
27758;SDS011;15148;48.972;12.794;2022-09-12T15:52:58;5.82;;;5.32;;
27758;SDS011;15148;48.972;12.794;2022-09-12T15:58:00;5.82;;;5.32;;
27758;SDS011;15148;48.972;12.794;2022-09-12T16:03:16;4.93;;;4.53;;
27758;SDS011;15148;48.972;12.794;2022-09-12T16:08:24;4.70;;;4.38;;
27758;SDS011;15148;48.972;12.794;2022-09-12T16:13:26;5.40;;;4.90;;
27758;SDS011;15148;48.972;12.794;2022-09-12T16:18:27;7.53;;;5.30;;
27758;SDS011;15148;48.972;12.794;2022-09-12T16:23:29;6.38;;;5.78;;
27758;SDS011;15148;48.972;12.794;2022-09-12T16:28:31;6.97;;;4.88;;
27758;SDS011;15148;48.972;12.794;2022-09-12T16:33:33;5.40;;;4.90;;
27758;SDS011;15148;48.972;12.794;2022-09-12T16:38:42;5.13;;;4.63;;
27758;SDS011;15148;48.972;12.794;2022-09-12T16:43:45;6.68;;;5.30;;
27758;SDS011;15148;48.972;12.794;2022-09-12T16:48:48;7.18;;;5.43;;
27758;SDS011;15148;48.972;12.794;2022-09-12T16:53:53;6.20;;;5.60;;
27758;SDS011;15148;48.972;12.794;2022-09-12T16:58:55;8.07;;;5.72;;
27758;SDS011;15148;48.972;12.794;2022-09-12T17:03:57;6.15;;;5.13;;
27758;SDS011;15148;48.972;12.794;2022-09-12T17:09:00;7.32;;;5.88;;
27758;SDS011;15148;48.972;12.794;2022-09-12T17:14:04;7.20;;;5.93;;
27758;SDS011;15148;48.972;12.794;2022-09-12T17:19:10;7.35;;;6.60;;
27758;SDS011;15148;48.972;12.794;2022-09-12T17:24:16;7.97;;;7.18;;
27758;SDS011;15148;48.972;12.794;2022-09-12T17:29:39;7.13;;;6.43;;
27758;SDS011;15148;48.972;12.794;2022-09-12T17:35:22;7.75;;;6.90;;
27758;SDS011;15148;48.972;12.794;2022-09-12T17:40:23;7.22;;;6.38;;
27758;SDS011;15148;48.972;12.794;2022-09-12T17:45:50;7.18;;;5.85;;
27758;SDS011;15148;48.972;12.794;2022-09-12T17:50:57;6.93;;;6.32;;
27758;SDS011;15148;48.972;12.794;2022-09-12T17:56:02;6.95;;;5.80;;
27758;SDS011;15148;48.972;12.794;2022-09-12T18:01:06;6.30;;;5.70;;
27758;SDS011;15148;48.972;12.794;2022-09-12T18:06:30;7.45;;;5.95;;
27758;SDS011;15148;48.972;12.794;2022-09-12T18:11:33;10.98;;;6.63;;
27758;SDS011;15148;48.972;12.794;2022-09-12T18:16:35;6.70;;;5.97;;
27758;SDS011;15148;48.972;12.794;2022-09-12T18:21:37;7.70;;;6.18;;
27758;SDS011;15148;48.972;12.794;2022-09-12T18:26:39;6.47;;;5.88;;
27758;SDS011;15148;48.972;12.794;2022-09-12T18:31:43;11.43;;;7.40;;
27758;SDS011;15148;48.972;12.794;2022-09-12T18:36:47;8.77;;;7.88;;
27758;SDS011;15148;48.972;12.794;2022-09-12T18:41:50;6.80;;;6.15;;
27758;SDS011;15148;48.972;12.794;2022-09-12T18:46:52;5.90;;;5.40;;
27758;SDS011;15148;48.972;12.794;2022-09-12T18:51:54;7.07;;;6.35;;
27758;SDS011;15148;48.972;12.794;2022-09-12T18:56:56;7.22;;;6.25;;
27758;SDS011;15148;48.972;12.794;2022-09-12T19:01:58;6.90;;;6.13;;
27758;SDS011;15148;48.972;12.794;2022-09-12T19:06:59;9.30;;;8.30;;
27758;SDS011;15148;48.972;12.794;2022-09-12T19:12:01;8.02;;;7.22;;
27758;SDS011;15148;48.972;12.794;2022-09-12T19:17:03;7.90;;;6.38;;
27758;SDS011;15148;48.972;12.794;2022-09-12T19:22:05;7.90;;;7.03;;
27758;SDS011;15148;48.972;12.794;2022-09-12T19:27:07;7.13;;;6.13;;
27758;SDS011;15148;48.972;12.794;2022-09-12T19:32:09;7.13;;;6.43;;
27758;SDS011;15148;48.972;12.794;2022-09-12T19:37:11;6.57;;;5.95;;
27758;SDS011;15148;48.972;12.794;2022-09-12T19:42:13;7.50;;;6.72;;
27758;SDS011;15148;48.972;12.794;2022-09-12T19:47:15;7.20;;;6.50;;
27758;SDS011;15148;48.972;12.794;2022-09-12T19:52:17;7.40;;;6.10;;
27758;SDS011;15148;48.972;12.794;2022-09-12T19:57:19;7.25;;;6.65;;
27758;SDS011;15148;48.972;12.794;2022-09-12T20:02:21;7.97;;;7.25;;
27758;SDS011;15148;48.972;12.794;2022-09-12T20:07:25;7.05;;;6.00;;
27758;SDS011;15148;48.972;12.794;2022-09-12T20:12:27;7.07;;;6.47;;
27758;SDS011;15148;48.972;12.794;2022-09-12T20:17:29;7.82;;;6.43;;
27758;SDS011;15148;48.972;12.794;2022-09-12T20:22:31;6.45;;;5.82;;
27758;SDS011;15148;48.972;12.794;2022-09-12T20:27:39;6.70;;;6.10;;
27758;SDS011;15148;48.972;12.794;2022-09-12T20:32:41;6.20;;;5.60;;
27758;SDS011;15148;48.972;12.794;2022-09-12T20:37:43;7.65;;;6.05;;
27758;SDS011;15148;48.972;12.794;2022-09-12T20:42:46;7.78;;;6.65;;
27758;SDS011;15148;48.972;12.794;2022-09-12T20:47:47;7.65;;;5.80;;
27758;SDS011;15148;48.972;12.794;2022-09-12T20:52:49;10.18;;;6.38;;
27758;SDS011;15148;48.972;12.794;2022-09-12T20:57:51;6.97;;;6.20;;
27758;SDS011;15148;48.972;12.794;2022-09-12T21:02:53;7.70;;;5.68;;
27758;SDS011;15148;48.972;12.794;2022-09-12T21:07:55;7.63;;;5.78;;
27758;SDS011;15148;48.972;12.794;2022-09-12T21:12:56;6.75;;;5.80;;
27758;SDS011;15148;48.972;12.794;2022-09-12T21:17:58;7.78;;;5.80;;
27758;SDS011;15148;48.972;12.794;2022-09-12T21:23:00;7.65;;;5.90;;
27758;SDS011;15148;48.972;12.794;2022-09-12T21:28:02;8.52;;;5.45;;
27758;SDS011;15148;48.972;12.794;2022-09-12T21:33:04;8.48;;;6.10;;
27758;SDS011;15148;48.972;12.794;2022-09-12T21:38:06;7.80;;;6.13;;
27758;SDS011;15148;48.972;12.794;2022-09-12T21:43:07;8.30;;;5.88;;
27758;SDS011;15148;48.972;12.794;2022-09-12T21:48:13;8.80;;;5.63;;
27758;SDS011;15148;48.972;12.794;2022-09-12T21:53:15;7.68;;;5.03;;
27758;SDS011;15148;48.972;12.794;2022-09-12T21:58:17;7.03;;;5.40;;
27758;SDS011;15148;48.972;12.794;2022-09-12T22:03:19;6.15;;;5.55;;
27758;SDS011;15148;48.972;12.794;2022-09-12T22:08:21;6.15;;;5.50;;
27758;SDS011;15148;48.972;12.794;2022-09-12T22:13:23;7.45;;;6.25;;
27758;SDS011;15148;48.972;12.794;2022-09-12T22:18:25;7.43;;;5.82;;
27758;SDS011;15148;48.972;12.794;2022-09-12T22:23:27;5.38;;;4.88;;
27758;SDS011;15148;48.972;12.794;2022-09-12T22:28:48;5.80;;;5.30;;
27758;SDS011;15148;48.972;12.794;2022-09-12T22:33:52;7.65;;;5.70;;
27758;SDS011;15148;48.972;12.794;2022-09-12T22:38:57;5.50;;;4.95;;
27758;SDS011;15148;48.972;12.794;2022-09-12T22:44:00;5.70;;;5.10;;
27758;SDS011;15148;48.972;12.794;2022-09-12T22:49:02;6.93;;;5.47;;
27758;SDS011;15148;48.972;12.794;2022-09-12T22:54:05;6.32;;;5.55;;
27758;SDS011;15148;48.972;12.794;2022-09-12T22:59:07;6.30;;;5.65;;
27758;SDS011;15148;48.972;12.794;2022-09-12T23:04:09;8.30;;;6.47;;
27758;SDS011;15148;48.972;12.794;2022-09-12T23:09:11;5.82;;;5.32;;
27758;SDS011;15148;48.972;12.794;2022-09-12T23:14:13;5.97;;;5.40;;
27758;SDS011;15148;48.972;12.794;2022-09-12T23:19:15;7.35;;;5.65;;
27758;SDS011;15148;48.972;12.794;2022-09-12T23:24:17;6.30;;;5.55;;
27758;SDS011;15148;48.972;12.794;2022-09-12T23:29:18;5.97;;;5.00;;
27758;SDS011;15148;48.972;12.794;2022-09-12T23:34:21;8.93;;;6.55;;
27758;SDS011;15148;48.972;12.794;2022-09-12T23:39:23;6.45;;;5.85;;
27758;SDS011;15148;48.972;12.794;2022-09-12T23:44:25;6.07;;;5.47;;
27758;SDS011;15148;48.972;12.794;2022-09-12T23:49:26;8.18;;;5.28;;
27758;SDS011;15148;48.972;12.794;2022-09-12T23:54:28;6.50;;;5.82;;
27758;SDS011;15148;48.972;12.794;2022-09-12T23:59:30;9.45;;;6.18;;
